Terminal Aerodrome Forecast
Issued by NWS Boise, ID

Home | Current Version | Previous Version | Text Only | Print | Product List | Glossary On
Versions: 1 2 3 4 5 6 7 8 9 10 11 12 13 14 15 16 17 18 19 20 21 22 23 24 25 26 27 28 29 30
000
FTUS45 KBOI 021810 CCA
TAFBOI
TAF COR
KBOI 021810Z 0218/0318 14006KT P6SM SKC
     FM022000 32007KT P6SM SKC
     FM030200 VRB05KT P6SM SKC
     FM030600 31012KT P6SM SCT200=

USA.gov is the U.S. government's official web portal to all federal, state and local government web resources and services.